Time;durP1;ratioP1;P1;durP2;ratioP2;P2;SDS_P1;SDS_P2;PMS_P1;PMS_P2;Temp;Humidity;BMP_temperature;BMP_pressure;BME280_temperature;BME280_humidity;BME280_pressure;Samples;Min_cycle;Max_cycle;Signal;HPM_P1;HPM_P2
2021/01/23 00:00:38;;;;;;;23.62;12.07;;;;;;;6.93;73.98;98397.94;2870483;82;21152;-67
2021/01/23 00:04:44;;;;;;;26.75;16.52;;;;;;;6.90;74.11;98398.25;2862863;82;21157;-67
2021/01/23 00:08:47;;;;;;;44.77;27.25;;;;;;;6.90;74.21;98402.21;2826684;83;21626;-68
2021/01/23 00:12:50;;;;;;;21.00;12.60;;;;;;;6.86;74.38;98388.93;2886176;81;21713;-67
2021/01/23 00:16:53;;;;;;;21.00;15.90;;;;;;;6.81;74.98;98387.23;2856366;83;21180;-67
2021/01/23 00:20:56;;;;;;;31.97;21.45;;;;;;;6.70;74.84;98384.30;2841900;83;21102;-66
2021/01/23 00:24:59;;;;;;;55.63;38.10;;;;;;;6.64;74.22;98379.62;2870295;82;21639;-67
2021/01/23 00:29:04;;;;;;;26.93;16.10;;;;;;;6.46;75.17;98367.66;2870702;82;21584;-68
2021/01/23 00:33:06;;;;;;;21.87;13.62;;;;;;;6.37;76.32;98350.41;2870084;82;21158;-67
2021/01/23 00:37:09;;;;;;;21.02;13.28;;;;;;;6.41;76.55;98354.42;2870239;82;21181;-68
2021/01/23 00:41:14;;;;;;;18.48;14.78;;;;;;;6.37;75.97;98333.72;2870359;82;21596;-66
2021/01/23 00:45:17;;;;;;;19.87;13.72;;;;;;;6.32;75.82;98346.06;2878379;82;21170;-66
2021/01/23 00:49:20;;;;;;;22.17;15.25;;;;;;;6.28;75.96;98348.63;2850703;83;21173;-67
2021/01/23 00:53:23;;;;;;;32.78;16.42;;;;;;;6.29;75.64;98336.62;2855399;83;21153;-67
2021/01/23 00:57:26;;;;;;;24.37;14.73;;;;;;;6.25;75.64;98322.52;2858404;82;21173;-68
2021/01/23 01:01:29;;;;;;;18.60;11.75;;;;;;;6.20;76.27;98331.37;2858520;82;21161;-67
2021/01/23 01:05:34;;;;;;;16.47;12.27;;;;;;;6.16;76.69;98332.16;2858609;83;21160;-67
2021/01/23 01:09:38;;;;;;;23.50;11.78;;;;;;;6.21;77.09;98343.12;2863602;82;21140;-67
2021/01/23 01:13:41;;;;;;;20.32;14.83;;;;;;;6.26;77.44;98345.31;2883988;82;22236;-67
2021/01/23 01:17:44;;;;;;;18.02;9.98;;;;;;;6.35;77.77;98340.48;2897211;82;21121;-67
2021/01/23 01:21:48;;;;;;;17.98;11.60;;;;;;;6.42;78.10;98333.63;2884886;82;21135;-67
2021/01/23 01:25:51;;;;;;;14.93;10.63;;;;;;;6.48;78.10;98327.41;2867187;83;21108;-67
2021/01/23 01:29:54;;;;;;;23.18;11.48;;;;;;;6.52;78.35;98332.76;2867358;82;21150;-68
2021/01/23 01:33:57;;;;;;;21.50;12.78;;;;;;;6.61;78.56;98336.33;2867540;82;21115;-67
2021/01/23 01:38:00;;;;;;;19.00;11.28;;;;;;;6.78;78.58;98339.96;2867391;82;21143;-67
2021/01/23 01:42:05;;;;;;;18.42;12.60;;;;;;;6.90;78.49;98349.83;2867715;82;21610;-67
2021/01/23 01:46:09;;;;;;;20.00;12.20;;;;;;;6.96;78.15;98359.31;2867853;82;21175;-66
2021/01/23 01:50:14;;;;;;;28.77;13.22;;;;;;;7.05;77.35;98354.09;2861434;82;21171;-68
2021/01/23 01:54:18;;;;;;;15.00;9.48;;;;;;;7.13;77.62;98350.22;2858936;83;21116;-66
2021/01/23 01:58:21;;;;;;;11.80;8.78;;;;;;;7.17;77.37;98334.38;2870579;82;21116;-66
2021/01/23 02:02:52;;;;;;;15.32;9.88;;;;;;;7.13;77.21;98318.49;2908823;81;21142;-66
2021/01/23 02:07:10;;;;;;;13.68;8.48;;;;;;;7.05;77.47;98304.70;2908845;81;21118;-67
2021/01/23 02:12:09;;;;;;;16.48;8.45;;;;;;;6.98;77.75;98283.33;2902434;81;21134;-66
2021/01/23 02:16:17;;;;;;;15.65;7.53;;;;;;;6.93;78.05;98282.12;2908460;81;21138;-66
2021/01/23 02:20:58;;;;;;;19.45;9.80;;;;;;;6.88;78.12;98269.38;2909112;81;21512;-67
2021/01/23 02:25:02;;;;;;;12.47;9.30;;;;;;;6.86;78.12;98270.00;2908653;81;21146;-66
2021/01/23 02:29:23;;;;;;;13.03;8.60;;;;;;;6.88;78.14;98277.31;2920750;81;21482;-67
2021/01/23 02:33:29;;;;;;;19.42;11.20;;;;;;;6.92;78.14;98281.30;2932665;81;21172;-67
2021/01/23 02:37:34;;;;;;;11.80;8.23;;;;;;;6.98;78.06;98275.40;2928571;80;21146;-67
2021/01/23 02:41:37;;;;;;;16.97;10.30;;;;;;;6.98;77.84;98279.88;2908849;81;21149;-67
2021/01/23 02:45:40;;;;;;;19.90;14.68;;;;;;;6.99;77.67;98271.77;2908568;81;21146;-67
2021/01/23 02:49:44;;;;;;;17.65;12.03;;;;;;;6.92;77.72;98252.23;2908461;81;21126;-66
2021/01/23 02:53:50;;;;;;;19.48;13.28;;;;;;;6.89;77.67;98245.93;2908796;81;21170;-67
2021/01/23 02:57:54;;;;;;;;;;;;;;;6.86;77.52;98240.92;2911354;81;21142;-66
2021/01/23 03:01:58;;;;;;;18.65;10.32;;;;;;;6.86;77.66;98239.60;2908782;81;20213;-67
2021/01/23 03:06:04;;;;;;;22.45;12.28;;;;;;;6.88;77.65;98234.17;2908651;81;21182;-68
2021/01/23 03:10:10;;;;;;;17.82;11.70;;;;;;;6.89;77.59;98225.27;2909443;81;21157;-67
2021/01/23 03:14:13;;;;;;;14.45;10.43;;;;;;;6.91;77.64;98212.24;2908579;81;21142;-67
2021/01/23 03:18:16;;;;;;;16.37;9.33;;;;;;;6.93;77.67;98201.02;2870507;82;21217;-67
2021/01/23 03:22:20;;;;;;;20.43;10.13;;;;;;;6.93;77.60;98187.81;2822140;84;21194;-67
2021/01/23 03:26:23;;;;;;;19.37;9.70;;;;;;;6.91;77.56;98162.02;2870385;82;21637;-67
2021/01/23 03:30:29;;;;;;;13.95;8.95;;;;;;;6.90;77.66;98143.66;2870461;82;21548;-66
2021/01/23 03:34:32;;;;;;;13.60;8.40;;;;;;;6.84;77.65;98130.09;2822290;84;21191;-67
2021/01/23 03:38:35;;;;;;;13.85;8.78;;;;;;;6.84;77.63;98127.93;2870229;82;21180;-67
2021/01/23 03:42:38;;;;;;;13.62;9.25;;;;;;;6.86;77.50;98122.00;2885291;81;21296;-67
2021/01/23 03:46:42;;;;;;;15.83;9.33;;;;;;;6.90;77.28;98106.19;2822057;84;21630;-66
2021/01/23 03:50:45;;;;;;;11.75;8.60;;;;;;;6.91;77.11;98109.17;2867973;81;21166;-66
2021/01/23 03:54:48;;;;;;;12.47;7.75;;;;;;;6.95;76.86;98113.15;2819106;84;21169;-67
2021/01/23 03:58:52;;;;;;;13.10;9.03;;;;;;;6.98;76.74;98127.38;2816406;84;21608;-67
2021/01/23 04:02:55;;;;;;;11.28;8.68;;;;;;;7.06;76.69;98148.22;2867634;83;21088;-67
2021/01/23 04:06:59;;;;;;;10.85;6.25;;;;;;;7.13;76.45;98165.95;2867440;82;21156;-67
2021/01/23 04:11:01;;;;;;;12.95;9.05;;;;;;;7.15;76.14;98176.38;2867974;82;21154;-67
2021/01/23 04:15:06;;;;;;;17.17;8.53;;;;;;;7.14;76.60;98158.86;2867543;83;21168;-67
2021/01/23 04:19:09;;;;;;;13.05;8.38;;;;;;;7.14;76.88;98150.93;2867393;82;21640;-67
2021/01/23 04:23:11;;;;;;;15.13;8.80;;;;;;;7.22;77.02;98139.58;2867670;82;21182;-67
2021/01/23 04:27:17;;;;;;;10.98;8.23;;;;;;;7.32;76.09;98131.53;2867131;83;30739;-67
2021/01/23 04:31:20;;;;;;;24.43;11.97;;;;;;;7.43;75.84;98115.36;2867734;83;21135;-68
2021/01/23 04:35:24;;;;;;;16.48;10.00;;;;;;;7.51;75.45;98110.11;2868034;81;21130;-67
2021/01/23 04:39:26;;;;;;;14.73;9.00;;;;;;;7.58;75.24;98110.31;2867718;82;21127;-66
2021/01/23 04:43:29;;;;;;;17.30;8.85;;;;;;;7.64;75.16;98096.91;2867845;82;21147;-67
2021/01/23 04:47:32;;;;;;;18.10;10.40;;;;;;;7.63;75.30;98082.02;2868052;81;21162;-67
2021/01/23 04:51:35;;;;;;;14.47;9.45;;;;;;;7.62;75.61;98066.66;2859430;82;21185;-67
2021/01/23 04:55:40;;;;;;;22.70;9.35;;;;;;;7.61;75.69;98061.03;2858351;83;21135;-67
2021/01/23 04:59:42;;;;;;;15.15;9.28;;;;;;;7.58;75.79;98050.78;2838044;82;21113;-67
2021/01/23 05:04:01;;;;;;;17.20;11.30;;;;;;;7.58;75.68;98046.30;2872709;82;21643;-67
2021/01/23 05:08:12;;;;;;;13.22;10.03;;;;;;;7.57;75.75;98031.42;2839080;83;21171;-67
2021/01/23 05:12:22;;;;;;;13.68;10.25;;;;;;;7.53;75.88;98013.38;2855524;83;21161;-67
2021/01/23 05:16:33;;;;;;;19.82;12.37;;;;;;;7.58;76.15;98007.94;3069418;76;22884;-66
2021/01/23 05:20:55;;;;;;;17.20;10.70;;;;;;;7.58;76.03;98002.64;3034039;77;21145;-66
2021/01/23 05:24:58;;;;;;;17.45;10.03;;;;;;;7.55;76.15;98002.97;2961582;80;21122;-66
2021/01/23 05:29:15;;;;;;;23.38;13.08;;;;;;;7.49;76.30;97975.86;3016034;78;21128;-66
2021/01/23 05:33:25;;;;;;;12.63;9.50;;;;;;;7.47;76.49;97980.97;2974948;78;21639;-66
2021/01/23 05:37:34;;;;;;;16.70;11.33;;;;;;;7.47;76.80;97961.97;2960701;80;21125;-67
2021/01/23 05:41:39;;;;;;;17.75;13.40;;;;;;;7.52;76.96;97970.72;2961033;78;21129;-66
2021/01/23 05:45:48;;;;;;;21.65;10.35;;;;;;;7.61;76.78;97959.65;2907903;80;21133;-67
2021/01/23 05:49:54;;;;;;;16.65;11.63;;;;;;;7.64;76.70;97940.80;2951991;80;21156;-66
2021/01/23 05:53:57;;;;;;;16.55;11.35;;;;;;;7.69;76.89;97944.61;2947608;80;21130;-66
2021/01/23 05:58:00;;;;;;;14.10;10.80;;;;;;;7.79;76.70;97937.83;2952307;80;21137;-65
2021/01/23 06:02:04;;;;;;;18.40;11.05;;;;;;;7.85;76.49;97931.86;2947675;80;21150;-66
2021/01/23 06:06:08;;;;;;;22.00;12.07;;;;;;;7.93;76.21;97920.44;2951774;80;21149;-66
2021/01/23 06:10:32;;;;;;;19.60;11.40;;;;;;;7.97;75.87;97921.78;2947807;80;21126;-66
2021/01/23 06:14:39;;;;;;;15.60;9.88;;;;;;;8.00;75.79;97916.63;2924522;80;21150;-66
2021/01/23 06:18:42;;;;;;;19.80;10.75;;;;;;;7.96;75.85;97918.81;2960562;79;21153;-66
2021/01/23 06:22:54;;;;;;;22.30;12.37;;;;;;;7.99;76.01;97918.47;2983274;79;21121;-67
2021/01/23 06:27:01;;;;;;;19.35;12.23;;;;;;;8.01;75.80;97922.26;2961312;80;21097;-67
2021/01/23 06:31:26;;;;;;;23.45;14.65;;;;;;;7.97;75.56;97914.33;2950644;80;21138;-67
2021/01/23 06:35:29;;;;;;;27.02;16.70;;;;;;;7.89;75.78;97905.08;2953697;80;21176;-67
2021/01/23 06:39:33;;;;;;;25.50;16.93;;;;;;;7.81;75.83;97888.20;2961560;80;21157;-67
2021/01/23 06:43:38;;;;;;;25.43;15.65;;;;;;;7.73;76.34;97878.95;2936484;80;21129;-67
2021/01/23 06:47:44;;;;;;;28.23;16.17;;;;;;;7.71;76.70;97875.66;2953748;79;21139;-67
2021/01/23 06:51:47;;;;;;;19.67;14.85;;;;;;;7.68;76.99;97866.73;2923768;81;21165;-68
2021/01/23 06:55:55;;;;;;;19.90;14.45;;;;;;;7.70;77.12;97860.77;2934638;81;21138;-67
2021/01/23 06:59:58;;;;;;;23.83;18.00;;;;;;;7.73;77.09;97859.11;2953823;80;21178;-68
2021/01/23 07:04:06;;;;;;;25.68;14.73;;;;;;;7.73;76.93;97861.75;2924304;81;21149;-67
2021/01/23 07:08:09;;;;;;;24.45;17.40;;;;;;;7.71;77.07;97853.16;2935023;81;21129;-68
2021/01/23 07:12:13;;;;;;;28.07;17.50;;;;;;;7.70;77.16;97854.16;2940791;80;21085;-68
2021/01/23 07:16:16;;;;;;;19.95;14.68;;;;;;;7.75;77.25;97850.98;2919500;80;21145;-67
2021/01/23 07:20:19;;;;;;;22.07;15.35;;;;;;;7.78;77.30;97854.13;2951429;80;21149;-68
2021/01/23 07:24:22;;;;;;;35.45;20.23;;;;;;;7.86;77.17;97854.13;2988920;79;21112;-67
2021/01/23 07:28:25;;;;;;;31.27;17.05;;;;;;;7.98;77.28;97845.82;2949194;80;21130;-68
2021/01/23 07:32:40;;;;;;;26.48;16.00;;;;;;;8.10;77.29;97840.98;2950451;80;21110;-67
2021/01/23 07:36:45;;;;;;;29.07;19.95;;;;;;;8.21;76.65;97830.05;2977578;79;21127;-67
2021/01/23 07:40:54;;;;;;;1154.33;630.50;;;;;;;8.24;76.35;97823.55;2981537;79;21165;-67
2021/01/23 07:45:04;;;;;;;215.90;131.75;;;;;;;8.22;76.00;97817.12;2988833;79;21809;-67
2021/01/23 07:49:11;;;;;;;285.85;175.40;;;;;;;8.18;76.32;97817.15;2988703;79;21183;-69
2021/01/23 07:53:23;;;;;;;209.83;136.30;;;;;;;8.22;76.52;97815.80;2987111;79;21593;-68
2021/01/23 07:57:26;;;;;;;88.82;54.13;;;;;;;8.26;76.39;97800.41;2988671;79;21169;-68
2021/01/23 08:01:29;;;;;;;51.90;31.97;;;;;;;8.15;75.89;97797.13;2988907;79;21118;-69
2021/01/23 08:05:54;;;;;;;42.98;27.25;;;;;;;7.89;76.58;97783.33;2983341;79;21352;-68
2021/01/23 08:10:19;;;;;;;93.67;64.20;;;;;;;7.67;77.61;97784.38;2978322;79;21178;-67
2021/01/23 08:14:23;;;;;;;58.73;33.02;;;;;;;7.58;78.61;97783.05;2941967;80;21178;-67
2021/01/23 08:18:26;;;;;;;107.55;65.80;;;;;;;7.63;78.79;97784.36;2976478;79;21137;-67
2021/01/23 08:22:29;;;;;;;58.92;38.17;;;;;;;7.60;79.44;97780.25;3014534;78;21101;-67
2021/01/23 08:26:39;;;;;;;52.30;35.20;;;;;;;7.61;79.81;97773.96;3025222;78;21164;-68
2021/01/23 08:30:42;;;;;;;72.15;46.65;;;;;;;7.50;80.49;97771.17;3025000;78;21136;-70
2021/01/23 08:34:46;;;;;;;57.38;36.35;;;;;;;7.49;81.29;97766.88;2971107;80;21149;-69
2021/01/23 08:39:05;;;;;;;48.00;38.60;;;;;;;7.59;81.54;97764.05;3025532;78;21108;-69
2021/01/23 08:43:09;;;;;;;51.15;36.17;;;;;;;7.62;81.65;97752.28;2947109;80;21127;-68
2021/01/23 08:47:12;;;;;;;48.95;34.05;;;;;;;7.67;81.83;97748.14;2940295;80;21109;-68
2021/01/23 08:51:16;;;;;;;48.52;29.67;;;;;;;7.70;81.66;97743.02;2944990;80;21142;-67
2021/01/23 08:55:19;;;;;;;59.73;39.45;;;;;;;7.70;81.99;97736.41;2950311;80;21197;-67
2021/01/23 08:59:29;;;;;;;77.32;55.25;;;;;;;7.77;81.94;97732.06;2959363;79;21159;-67
2021/01/23 09:03:33;;;;;;;47.30;31.60;;;;;;;7.77;81.84;97740.01;2960781;79;21861;-67
2021/01/23 09:07:49;;;;;;;47.40;31.85;;;;;;;7.74;81.96;97731.58;2960524;79;21136;-68
2021/01/23 09:11:59;;;;;;;50.90;31.85;;;;;;;7.68;82.05;97732.59;2960625;79;21149;-67
2021/01/23 09:16:23;;;;;;;47.58;34.38;;;;;;;7.60;82.41;97733.95;2934875;79;22126;-68
2021/01/23 09:20:42;;;;;;;42.27;29.90;;;;;;;7.56;82.71;97729.97;2973525;79;21137;-69
2021/01/23 09:24:44;;;;;;;40.25;31.12;;;;;;;7.60;83.03;97739.24;2944924;80;21153;-67
2021/01/23 09:29:05;;;;;;;52.27;30.82;;;;;;;7.74;83.09;97732.89;2909136;81;21119;-68
2021/01/23 09:33:12;;;;;;;46.88;29.77;;;;;;;7.79;82.52;97739.85;2910295;80;21148;-68
2021/01/23 09:37:19;;;;;;;51.18;33.10;;;;;;;7.78;82.40;97732.39;2970503;79;21140;-68
2021/01/23 09:41:22;;;;;;;48.38;29.25;;;;;;;7.80;82.41;97737.53;2982126;79;21129;-68
2021/01/23 09:45:31;;;;;;;58.28;39.83;;;;;;;7.79;82.18;97732.72;2975492;79;21157;-69
2021/01/23 09:49:36;;;;;;;52.80;32.75;;;;;;;7.78;82.37;97732.39;2962159;80;21109;-69
2021/01/23 09:54:12;;;;;;;48.75;33.75;;;;;;;7.75;82.30;97719.51;2953793;80;21137;-67
2021/01/23 09:58:38;;;;;;;62.38;42.27;;;;;;;7.74;82.57;97725.80;2905282;80;21153;-65
2021/01/23 10:02:45;;;;;;;64.95;36.10;;;;;;;7.83;82.89;97719.47;2895722;82;21098;-70
2021/01/23 10:11:22;;;;;;;53.40;32.40;;;;;;;8.00;82.68;97702.20;2954573;80;21149;-67
2021/01/23 10:20:01;;;;;;;55.73;41.15;;;;;;;8.16;83.05;97686.74;2995797;79;21559;-69
2021/01/23 10:24:37;;;;;;;44.10;31.60;;;;;;;8.41;82.97;97688.72;3019560;77;21093;-67
2021/01/23 10:28:40;;;;;;;45.40;30.10;;;;;;;8.64;82.88;97687.92;3059602;77;21512;-68
2021/01/23 10:32:43;;;;;;;60.00;36.35;;;;;;;8.95;83.25;97681.72;3059640;77;21093;-66
2021/01/23 10:37:18;;;;;;;48.80;32.42;;;;;;;9.21;81.63;97679.14;3059577;77;21104;-67
2021/01/23 10:41:21;;;;;;;53.00;33.65;;;;;;;9.33;80.52;97675.54;3059522;77;21132;-68
2021/01/23 10:45:45;;;;;;;27.98;20.12;;;;;;;9.43;80.22;97665.49;3059560;77;21097;-67
2021/01/23 10:49:48;;;;;;;15.32;10.03;;;;;;;9.49;80.59;97666.59;3058314;77;21586;-69
2021/01/23 10:53:53;;;;;;;9.73;6.97;;;;;;;9.89;81.68;97686.18;3058495;77;21486;-70
2021/01/23 10:57:55;;;;;;;14.43;8.80;;;;;;;10.39;79.61;97685.53;3058071;77;21148;-68
2021/01/23 11:02:00;;;;;;;8.90;7.67;;;;;;;10.93;77.68;97676.23;3059290;77;21085;-67
2021/01/23 11:06:07;;;;;;;9.90;6.65;;;;;;;11.28;76.20;97694.91;3058106;77;21152;-68
2021/01/23 11:10:12;;;;;;;14.07;9.85;;;;;;;11.48;75.05;97699.55;3058022;77;21129;-71
2021/01/23 11:14:15;;;;;;;22.95;14.07;;;;;;;11.60;74.07;97725.64;3058258;77;21135;-71
2021/01/23 11:18:25;;;;;;;39.73;24.60;;;;;;;11.46;73.25;97751.33;3058051;77;21579;-69
2021/01/23 11:22:29;;;;;;;52.58;33.40;;;;;;;10.97;73.16;97751.95;3058314;77;21575;-66
2021/01/23 11:26:34;;;;;;;49.98;31.62;;;;;;;10.25;73.20;97783.68;3058167;77;21133;-67
2021/01/23 11:30:40;;;;;;;47.43;28.02;;;;;;;9.49;74.33;97762.13;3058292;77;21114;-68
2021/01/23 11:34:45;;;;;;;56.05;28.47;;;;;;;9.02;75.59;97780.42;3058392;77;21102;-65
2021/01/23 11:38:53;;;;;;;48.33;28.67;;;;;;;8.66;76.66;97773.40;3058069;77;21141;-70
2021/01/23 11:42:56;;;;;;;42.88;28.38;;;;;;;8.43;77.47;97804.59;3057745;77;21133;-70
2021/01/23 11:52:32;;;;;;;48.33;29.25;;;;;;;7.98;78.53;97845.82;3059277;77;21093;-72
2021/01/23 12:01:30;;;;;;;41.13;25.37;;;;;;;7.66;79.54;97899.11;3035983;76;21085;-70
2021/01/23 12:06:08;;;;;;;26.55;17.60;;;;;;;7.51;80.09;97917.48;3027730;78;21391;-69
2021/01/23 12:10:16;;;;;;;27.02;15.38;;;;;;;7.37;80.35;97913.67;3027276;77;21097;-71
2021/01/23 12:19:03;;;;;;;18.05;12.18;;;;;;;7.07;81.30;97929.13;3024905;78;21105;-75
2021/01/23 12:23:09;;;;;;;14.73;11.45;;;;;;;6.96;81.59;97899.86;3022949;78;21077;-71
2021/01/23 12:27:48;;;;;;;19.12;12.28;;;;;;;6.88;81.98;97904.66;3022695;78;21117;-73
2021/01/23 12:31:52;;;;;;;13.32;9.03;;;;;;;6.84;82.41;97925.77;3022985;78;21086;-66
2021/01/23 12:36:27;;;;;;;9.18;7.83;;;;;;;6.83;82.56;97951.86;3023260;78;21117;-68
2021/01/23 12:40:30;;;;;;;12.78;6.60;;;;;;;6.77;81.55;97960.44;3023164;78;21093;-68
2021/01/23 12:45:09;;;;;;;8.05;5.47;;;;;;;6.68;81.15;97951.64;3022942;78;21132;-67
2021/01/23 12:49:12;;;;;;;4.87;4.35;;;;;;;6.51;80.58;97938.35;3002343;78;21681;-67
2021/01/23 12:53:16;;;;;;;5.62;4.97;;;;;;;6.37;80.45;97964.02;3026680;78;21159;-70
2021/01/23 12:57:20;;;;;;;4.42;3.67;;;;;;;6.20;80.02;97979.78;3035680;78;21112;-70
2021/01/23 13:01:22;;;;;;;5.80;4.10;;;;;;;5.99;79.70;97999.88;3035742;78;21116;-69
2021/01/23 13:05:26;;;;;;;4.25;3.02;;;;;;;5.81;79.70;98015.22;3035603;78;21097;-68
2021/01/23 13:09:29;;;;;;;4.45;4.00;;;;;;;5.71;79.88;98043.50;3035322;78;21152;-69
2021/01/23 13:13:32;;;;;;;5.33;3.95;;;;;;;5.66;80.01;98049.69;3035346;78;21128;-69
2021/01/23 13:17:35;;;;;;;3.92;3.52;;;;;;;5.64;80.45;98068.80;3035233;78;21152;-69
2021/01/23 13:21:40;;;;;;;3.52;3.22;;;;;;;5.61;80.34;98064.67;3035496;78;21121;-70
2021/01/23 13:25:47;;;;;;;4.62;3.45;;;;;;;5.52;80.00;98062.91;3035319;78;21455;-68
2021/01/23 13:29:50;;;;;;;2.90;2.70;;;;;;;5.51;79.78;98063.41;3035341;78;21128;-72
2021/01/23 13:33:54;;;;;;;2.27;2.08;;;;;;;5.46;79.34;98070.91;3035036;77;21119;-73
2021/01/23 13:37:57;;;;;;;4.50;3.02;;;;;;;5.41;79.20;98075.33;3023594;77;21169;-71
2021/01/23 13:41:59;;;;;;;4.45;2.83;;;;;;;5.44;79.41;98076.83;2913816;79;21151;-71
2021/01/23 13:46:02;;;;;;;4.20;2.40;;;;;;;5.50;79.58;98078.89;2913884;79;21145;-70
2021/01/23 13:50:07;;;;;;;3.80;2.35;;;;;;;5.57;79.18;98066.77;2954910;80;21155;-69
2021/01/23 13:54:10;;;;;;;2.72;2.50;;;;;;;5.64;79.39;98087.27;2978149;79;21664;-69
2021/01/23 13:58:13;;;;;;;3.83;2.58;;;;;;;5.68;79.33;98082.87;2981133;79;21137;-69
2021/01/23 14:02:19;;;;;;;3.67;2.75;;;;;;;5.68;78.89;98096.05;2913613;81;21148;-70
2021/01/23 14:06:22;;;;;;;;;;;;;;;5.69;79.05;98099.03;2871660;82;21153;-69
2021/01/23 14:10:25;;;;;;;5.47;2.47;;;;;;;5.67;78.43;98101.47;2865567;83;20190;-69
2021/01/23 14:14:28;;;;;;;3.20;2.42;;;;;;;5.68;78.27;98104.45;2870323;81;21146;-69
2021/01/23 14:18:31;;;;;;;6.65;2.95;;;;;;;5.63;77.94;98113.30;2926575;81;21151;-69
2021/01/23 14:22:34;;;;;;;5.33;3.67;;;;;;;5.55;77.82;98109.60;2902141;82;21177;-69
2021/01/23 14:26:37;;;;;;;6.53;2.90;;;;;;;5.53;77.87;98116.84;2994187;79;21460;-64
2021/01/23 14:30:40;;;;;;;7.00;4.15;;;;;;;5.32;77.72;98128.92;2994785;78;21110;-63
2021/01/23 14:34:42;;;;;;;11.73;5.33;;;;;;;5.25;78.29;98149.76;2994483;78;21138;-63
2021/01/23 14:38:47;;;;;;;12.13;7.47;;;;;;;5.16;78.71;98158.55;2994502;78;21123;-63
2021/01/23 14:42:54;;;;;;;8.30;4.80;;;;;;;5.12;78.88;98178.27;2994568;78;21532;-64
2021/01/23 14:46:59;;;;;;;;;;;;;;;5.09;79.32;98167.98;2996962;78;21114;-64
2021/01/23 14:51:03;;;;;;;5.47;3.22;;;;;;;5.03;79.14;98181.73;2994023;79;20178;-64
2021/01/23 14:55:08;;;;;;;2.05;1.92;;;;;;;5.00;79.44;98193.38;2993948;78;21161;-63
2021/01/23 14:59:11;;;;;;;2.42;1.60;;;;;;;4.95;78.77;98209.63;2994434;79;21142;-64
2021/01/23 15:03:13;;;;;;;2.70;2.15;;;;;;;4.93;78.62;98222.12;2994535;78;21129;-62
2021/01/23 15:07:17;;;;;;;5.90;2.33;;;;;;;4.90;78.88;98230.78;2994303;78;21138;-63
2021/01/23 15:11:20;;;;;;;3.95;2.62;;;;;;;4.86;78.74;98235.48;2994326;79;21150;-64
2021/01/23 15:15:23;;;;;;;2.33;1.42;;;;;;;4.83;78.61;98248.48;2994414;79;21126;-64
2021/01/23 15:19:28;;;;;;;4.50;2.85;;;;;;;4.78;78.80;98237.50;3022909;77;21106;-63
2021/01/23 15:23:32;;;;;;;3.60;2.60;;;;;;;4.70;79.14;98240.83;3058365;77;21133;-63
2021/01/23 15:27:34;;;;;;;5.42;2.90;;;;;;;4.53;79.70;98246.80;3058137;77;21129;-64
2021/01/23 15:31:40;;;;;;;2.95;2.62;;;;;;;4.64;79.47;98249.29;3058296;77;21528;-63
2021/01/23 15:35:44;;;;;;;2.77;2.25;;;;;;;4.63;79.81;98246.31;3058196;77;21132;-63
2021/01/23 15:39:49;;;;;;;4.22;2.98;;;;;;;4.59;80.07;98243.61;3058388;77;21121;-63
2021/01/23 15:43:51;;;;;;;4.00;2.80;;;;;;;4.63;79.71;98252.08;3058355;77;21133;-64
2021/01/23 15:47:55;;;;;;;4.70;3.40;;;;;;;4.61;79.42;98261.89;3058073;77;21170;-63
2021/01/23 15:51:58;;;;;;;3.58;3.10;;;;;;;4.68;79.78;98277.51;3058015;77;21145;-64
2021/01/23 15:56:01;;;;;;;2.62;2.42;;;;;;;4.76;79.75;98305.30;3058103;77;21113;-64
2021/01/23 16:00:09;;;;;;;4.20;2.90;;;;;;;4.80;79.78;98300.59;3058272;77;21109;-65
2021/01/23 16:04:14;;;;;;;4.40;3.20;;;;;;;4.89;79.72;98298.94;3058315;77;21089;-64
2021/01/23 16:08:17;;;;;;;7.67;5.00;;;;;;;4.89;79.38;98310.30;3058137;77;21117;-64
2021/01/23 16:12:20;;;;;;;8.65;4.37;;;;;;;4.90;79.19;98309.32;3058517;77;21102;-64
2021/01/23 16:16:25;;;;;;;8.48;5.15;;;;;;;4.91;79.22;98312.30;3058410;77;21117;-63
2021/01/23 16:20:33;;;;;;;6.17;3.95;;;;;;;4.89;79.41;98321.33;3058345;77;21158;-64
2021/01/23 16:24:33;;;;;;;4.95;2.80;;;;;;;4.87;79.53;98322.77;3057958;77;21176;-63
2021/01/23 16:28:37;;;;;;;6.72;4.42;;;;;;;4.77;79.45;98308.78;3058139;77;21133;-64
2021/01/23 16:32:39;;;;;;;5.15;3.85;;;;;;;4.71;79.66;98316.23;3058269;77;21110;-63
2021/01/23 16:36:44;;;;;;;6.40;4.85;;;;;;;4.70;80.20;98329.06;3058309;77;21165;-64
2021/01/23 16:40:47;;;;;;;4.95;4.25;;;;;;;4.61;80.06;98334.31;3058328;77;21101;-64
2021/01/23 16:44:51;;;;;;;4.05;3.05;;;;;;;4.61;80.37;98341.74;3058424;77;21133;-63
2021/01/23 16:48:54;;;;;;;4.00;1.45;;;;;;;4.51;80.02;98335.13;3058360;77;21154;-63
2021/01/23 16:52:57;;;;;;;3.95;3.25;;;;;;;4.47;80.07;98342.11;3058529;77;21140;-63
2021/01/23 16:57:00;;;;;;;2.85;1.92;;;;;;;4.45;80.10;98350.64;3035038;77;21137;-63
2021/01/23 17:01:04;;;;;;;5.05;2.50;;;;;;;4.43;79.95;98354.23;3058586;77;21441;-64
2021/01/23 17:05:09;;;;;;;5.90;3.47;;;;;;;4.41;80.20;98354.02;3057811;77;21161;-63
2021/01/23 17:09:12;;;;;;;6.25;3.50;;;;;;;4.43;80.09;98367.40;3058099;77;21137;-64
2021/01/23 17:13:15;;;;;;;3.52;2.60;;;;;;;4.50;79.89;98369.48;3058485;77;21101;-63
2021/01/23 17:17:18;;;;;;;3.42;3.12;;;;;;;4.51;79.98;98352.25;3058143;77;21161;-64
2021/01/23 17:21:21;;;;;;;2.45;2.10;;;;;;;4.51;79.35;98330.34;3058139;77;21073;-63
2021/01/23 17:25:24;;;;;;;2.52;2.33;;;;;;;4.49;79.02;98325.70;3058016;77;21185;-63
2021/01/23 17:29:27;;;;;;;5.92;4.15;;;;;;;4.43;79.20;98333.17;3058427;77;21125;-63
2021/01/23 17:33:29;;;;;;;8.20;5.33;;;;;;;4.42;80.12;98338.09;3058227;77;21129;-63
2021/01/23 17:37:32;;;;;;;10.65;5.53;;;;;;;4.47;80.40;98343.43;3058109;77;21157;-63
2021/01/23 17:41:38;;;;;;;12.85;7.85;;;;;;;4.45;80.82;98333.52;3058572;77;21097;-64
2021/01/23 17:45:40;;;;;;;6.37;4.40;;;;;;;4.43;80.75;98338.44;3058480;77;21126;-63
2021/01/23 17:49:43;;;;;;;7.28;5.17;;;;;;;4.42;80.51;98360.47;3058283;77;21452;-63
2021/01/23 17:53:51;;;;;;;7.37;5.40;;;;;;;4.52;80.65;98379.40;2987226;77;21140;-63
2021/01/23 17:57:53;;;;;;;4.67;4.28;;;;;;;4.64;80.07;98402.04;2981136;78;21129;-63
2021/01/23 18:01:56;;;;;;;4.12;3.45;;;;;;;4.74;79.65;98400.75;2914373;81;21160;-63
2021/01/23 18:06:00;;;;;;;3.72;2.87;;;;;;;4.76;79.27;98392.72;2928242;79;21149;-63
2021/01/23 18:10:04;;;;;;;4.53;3.05;;;;;;;4.76;79.26;98388.77;2923068;80;21105;-64
2021/01/23 18:14:08;;;;;;;4.05;2.85;;;;;;;4.73;78.96;98391.18;2992086;79;21580;-64
2021/01/23 18:18:11;;;;;;;3.30;3.00;;;;;;;4.78;78.92;98398.19;3057771;77;21117;-63
2021/01/23 18:22:15;;;;;;;3.02;2.45;;;;;;;4.79;78.70;98396.40;3024622;77;21122;-63
2021/01/23 18:26:18;;;;;;;6.30;3.90;;;;;;;4.75;78.66;98403.73;3022122;78;21126;-63
2021/01/23 18:30:22;;;;;;;12.85;6.47;;;;;;;4.77;78.88;98416.28;3021790;78;21142;-63
2021/01/23 18:34:25;;;;;;;10.18;6.58;;;;;;;4.83;79.12;98409.17;3022043;78;21083;-63
2021/01/23 18:38:28;;;;;;;5.37;3.52;;;;;;;4.88;78.85;98405.30;3022265;78;21161;-63
2021/01/23 18:42:31;;;;;;;4.70;3.95;;;;;;;4.91;78.99;98411.61;3022138;78;21130;-63
2021/01/23 18:46:36;;;;;;;3.55;3.00;;;;;;;4.96;78.62;98412.87;2993098;78;21572;-61
2021/01/23 18:50:40;;;;;;;4.97;3.67;;;;;;;4.95;78.63;98423.53;2992512;78;21136;-61
2021/01/23 18:54:45;;;;;;;5.75;3.33;;;;;;;5.00;78.97;98416.89;2979359;78;21131;-63
2021/01/23 18:58:48;;;;;;;3.85;2.65;;;;;;;5.11;78.73;98419.04;2971729;78;21133;-64
2021/01/23 19:02:51;;;;;;;4.97;4.15;;;;;;;5.16;78.51;98419.48;2905638;81;21173;-62
2021/01/23 19:06:54;;;;;;;9.23;5.03;;;;;;;5.21;78.35;98411.99;2998257;78;21102;-62
2021/01/23 19:10:57;;;;;;;8.08;4.25;;;;;;;5.18;78.02;98412.27;3006633;78;21140;-62
2021/01/23 19:15:00;;;;;;;6.33;5.35;;;;;;;5.06;77.86;98401.50;3009620;78;21128;-62
2021/01/23 19:19:03;;;;;;;9.13;5.45;;;;;;;4.93;78.61;98401.29;3023754;78;21129;-62
2021/01/23 19:23:08;;;;;;;20.72;12.63;;;;;;;4.80;79.28;98404.15;3026617;78;21118;-62
2021/01/23 19:27:11;;;;;;;10.00;8.88;;;;;;;4.74;79.65;98410.47;3028478;78;21082;-62
2021/01/23 19:31:14;;;;;;;9.98;8.03;;;;;;;4.69;79.76;98397.69;3026284;78;21117;-63
2021/01/23 19:35:25;;;;;;;11.35;7.67;;;;;;;4.63;79.73;98414.86;3027423;77;21148;-63
2021/01/23 19:39:36;;;;;;;11.03;7.67;;;;;;;4.61;79.76;98411.53;3024705;78;21588;-61